createdAt,value
2023-03-04T00:01:50.583Z,38.93
2023-03-04T00:04:19.416Z,31.77
2023-03-04T00:06:48.434Z,40.87
2023-03-04T00:09:18.648Z,41.60
2023-03-04T00:11:47.124Z,36.37
2023-03-04T00:14:15.870Z,38.73
2023-03-04T00:16:44.346Z,34.70
2023-03-04T00:19:13.148Z,41.03
2023-03-04T00:21:41.779Z,34.67
2023-03-04T00:24:10.949Z,40.00
2023-03-04T00:26:40.734Z,43.37
2023-03-04T00:29:09.467Z,51.07
2023-03-04T00:31:38.419Z,35.63
2023-03-04T00:34:07.171Z,37.27
2023-03-04T00:36:35.645Z,36.23
2023-03-04T00:39:04.348Z,36.53
2023-03-04T00:41:32.838Z,45.83
2023-03-04T00:44:03.172Z,34.00
2023-03-04T00:46:31.638Z,34.20
2023-03-04T00:49:00.402Z,43.90
2023-03-04T00:51:29.469Z,39.80
2023-03-04T00:54:00.698Z,37.73
2023-03-04T00:56:29.528Z,43.53
2023-03-04T00:58:58.298Z,32.43
2023-03-04T01:01:28.625Z,27.33
2023-03-04T01:03:57.360Z,33.00
2023-03-04T01:06:25.805Z,33.20
2023-03-04T01:08:54.484Z,27.43
2023-03-04T01:11:23.163Z,33.83
2023-03-04T01:13:51.962Z,37.83
2023-03-04T01:16:20.460Z,42.10
2023-03-04T01:18:51.424Z,36.50
2023-03-04T01:21:19.956Z,36.27
2023-03-04T01:23:48.771Z,38.37
2023-03-04T01:26:17.179Z,37.97
2023-03-04T01:28:45.915Z,36.27
2023-03-04T01:31:14.349Z,33.50
2023-03-04T01:33:43.173Z,26.17
2023-03-04T01:36:13.392Z,32.13
2023-03-04T01:38:42.131Z,32.17
2023-03-04T01:41:12.483Z,36.97
2023-03-04T01:43:41.417Z,33.00
2023-03-04T01:46:15.135Z,33.60
2023-03-04T01:48:44.656Z,36.47
2023-03-04T01:51:17.907Z,30.47
2023-03-04T01:53:50.126Z,39.10
2023-03-04T01:56:23.914Z,42.03
2023-03-04T01:59:14.632Z,30.00
2023-03-04T02:01:45.548Z,36.43
2023-03-04T02:04:15.250Z,27.00
2023-03-04T02:06:46.353Z,42.33
2023-03-04T02:09:16.555Z,31.40
2023-03-04T02:11:46.362Z,38.50
2023-03-04T02:14:16.332Z,36.20
2023-03-04T02:16:45.003Z,32.13
2023-03-04T02:19:18.875Z,24.73
2023-03-04T02:21:48.717Z,40.70
2023-03-04T02:24:21.724Z,31.47
2023-03-04T02:26:52.655Z,32.13
2023-03-04T02:29:21.641Z,40.20
2023-03-04T02:31:51.887Z,33.50
2023-03-04T02:34:22.797Z,35.63
2023-03-04T02:36:53.641Z,31.30
2023-03-04T02:39:31.385Z,40.80
2023-03-04T02:42:02.906Z,35.60
2023-03-04T02:44:36.205Z,30.33
2023-03-04T02:47:06.933Z,34.50
2023-03-04T02:49:38.209Z,41.80
2023-03-04T02:52:08.443Z,32.77
2023-03-04T02:54:39.756Z,34.40
2023-03-04T02:57:11.814Z,36.20
2023-03-04T02:59:43.953Z,31.03
2023-03-04T03:02:17.413Z,33.77
2023-03-04T03:04:46.329Z,35.20
2023-03-04T03:07:17.748Z,30.23
2023-03-04T03:09:46.636Z,33.17
2023-03-04T03:12:16.466Z,35.27
2023-03-04T03:14:45.237Z,29.23
2023-03-04T03:17:15.662Z,31.50
2023-03-04T03:19:44.384Z,42.17
2023-03-04T03:22:13.439Z,41.80
2023-03-04T03:24:42.170Z,32.37
2023-03-04T03:27:10.659Z,39.13
2023-03-04T03:29:40.814Z,26.13
2023-03-04T03:32:10.206Z,32.27
2023-03-04T03:34:39.156Z,36.67
2023-03-04T03:37:07.756Z,27.77
2023-03-04T03:39:36.470Z,23.40
2023-03-04T03:42:05.155Z,41.33
2023-03-04T03:44:34.062Z,30.20
2023-03-04T03:47:04.000Z,33.73
2023-03-04T03:49:32.999Z,38.77
2023-03-04T03:52:01.438Z,48.83
2023-03-04T03:54:30.611Z,32.13
2023-03-04T03:56:59.042Z,38.93
2023-03-04T03:59:28.001Z,32.90
2023-03-04T04:01:56.467Z,26.13
2023-03-04T04:04:26.900Z,33.20
2023-03-04T04:06:55.424Z,35.53
2023-03-04T04:09:24.226Z,32.20
2023-03-04T04:11:52.700Z,35.23
2023-03-04T04:14:21.496Z,31.80
2023-03-04T04:16:49.974Z,35.50
2023-03-04T04:19:20.211Z,45.23
2023-03-04T04:21:50.656Z,27.73
2023-03-04T04:24:20.043Z,26.43
2023-03-04T04:26:48.585Z,37.87
2023-03-04T04:29:18.237Z,36.40
2023-03-04T04:31:46.748Z,30.60
2023-03-04T04:34:15.530Z,29.87
2023-03-04T04:36:44.016Z,29.30
2023-03-04T04:39:14.609Z,31.67
2023-03-04T04:41:44.788Z,32.33
2023-03-04T04:44:14.195Z,34.23
2023-03-04T04:46:43.235Z,32.23
2023-03-04T04:49:12.019Z,35.80
2023-03-04T04:51:40.968Z,30.37
2023-03-04T04:54:09.818Z,31.53
2023-03-04T04:56:39.660Z,32.40
2023-03-04T04:59:09.710Z,30.03
2023-03-04T05:01:38.745Z,27.10
2023-03-04T05:04:07.457Z,25.90
2023-03-04T05:06:35.917Z,31.07
2023-03-04T05:09:05.890Z,26.87
2023-03-04T05:11:34.603Z,35.43
2023-03-04T05:14:04.863Z,32.83
2023-03-04T05:16:33.337Z,23.77
2023-03-04T05:19:02.077Z,26.00
2023-03-04T05:21:30.506Z,27.97
2023-03-04T05:23:59.286Z,22.83
2023-03-04T05:26:27.764Z,27.03
2023-03-04T05:28:56.525Z,28.13
2023-03-04T05:31:26.357Z,24.27
2023-03-04T05:33:55.273Z,38.20
2023-03-04T05:36:23.740Z,34.00
2023-03-04T05:38:52.514Z,29.73
2023-03-04T05:41:22.689Z,38.27
2023-03-04T05:43:51.726Z,28.13
2023-03-04T05:46:25.330Z,27.73
2023-03-04T05:48:56.088Z,26.50
2023-03-04T05:51:24.841Z,31.77
2023-03-04T05:53:53.497Z,31.10
2023-03-04T05:56:22.335Z,29.30
2023-03-04T05:58:51.075Z,35.70
2023-03-04T06:01:19.688Z,26.87
2023-03-04T06:03:49.336Z,23.83
2023-03-04T06:06:19.442Z,34.87
2023-03-04T06:08:48.207Z,16.13
2023-03-04T06:11:16.664Z,26.87
2023-03-04T06:13:45.809Z,34.27
2023-03-04T06:16:14.377Z,42.93
2023-03-04T06:18:43.127Z,21.57
2023-03-04T06:21:11.574Z,39.57
2023-03-04T06:23:42.095Z,26.10
2023-03-04T06:26:15.304Z,22.87
2023-03-04T06:28:44.558Z,26.80
2023-03-04T06:31:13.045Z,36.80
2023-03-04T06:33:41.746Z,21.57
2023-03-04T06:36:10.300Z,24.03
2023-03-04T06:38:39.391Z,30.17
2023-03-04T06:41:10.363Z,31.30
2023-03-04T06:43:39.333Z,26.10
2023-03-04T06:46:08.407Z,25.60
2023-03-04T06:48:37.554Z,25.70
2023-03-04T06:51:10.003Z,35.87
2023-03-04T06:53:39.684Z,26.00
2023-03-04T06:56:12.261Z,30.13
2023-03-04T06:58:40.980Z,23.50
2023-03-04T07:01:14.257Z,24.83
2023-03-04T07:03:44.245Z,31.77
2023-03-04T07:06:14.277Z,24.70
2023-03-04T07:08:43.535Z,26.40
2023-03-04T07:11:13.659Z,34.90
2023-03-04T07:13:42.964Z,28.83
2023-03-04T07:16:13.681Z,27.00
2023-03-04T07:18:42.548Z,30.53
2023-03-04T07:21:11.577Z,30.50
2023-03-04T07:23:40.626Z,25.17
2023-03-04T07:26:09.438Z,30.33
2023-03-04T07:28:40.243Z,24.33
2023-03-04T07:31:14.003Z,20.73
2023-03-04T07:33:42.908Z,29.17
2023-03-04T07:36:11.362Z,24.77
2023-03-04T07:38:40.126Z,20.77
2023-03-04T07:41:08.508Z,22.60
2023-03-04T07:43:38.911Z,27.27
2023-03-04T07:46:07.470Z,23.30
2023-03-04T07:48:37.205Z,24.67
2023-03-04T07:51:08.300Z,18.43
2023-03-04T07:53:38.542Z,23.97
2023-03-04T07:56:08.822Z,25.63
2023-03-04T07:58:38.959Z,29.27
2023-03-04T08:01:11.350Z,30.83
2023-03-04T08:03:40.279Z,27.83
2023-03-04T08:06:09.916Z,19.93
2023-03-04T08:08:38.830Z,26.97
2023-03-04T08:11:07.947Z,25.40
2023-03-04T08:13:37.038Z,23.73
2023-03-04T08:16:08.258Z,23.37
2023-03-04T08:18:37.048Z,21.77
2023-03-04T08:21:10.177Z,25.13
2023-03-04T08:23:39.076Z,28.80
2023-03-04T08:26:08.761Z,22.43
2023-03-04T08:28:37.957Z,30.40
2023-03-04T08:31:08.452Z,29.17
2023-03-04T08:33:37.671Z,29.00
2023-03-04T08:36:06.879Z,29.53
2023-03-04T08:38:36.168Z,19.40
2023-03-04T08:41:04.872Z,24.50
2023-03-04T08:43:34.757Z,19.47
2023-03-04T08:46:03.671Z,17.37
2023-03-04T08:48:34.223Z,22.33
2023-03-04T08:51:02.713Z,22.30
2023-03-04T08:53:31.425Z,28.10
2023-03-04T08:56:00.283Z,24.93
2023-03-04T08:58:29.064Z,18.53
2023-03-04T09:00:57.919Z,25.83
2023-03-04T09:03:26.785Z,23.33
2023-03-04T09:05:57.021Z,22.13
2023-03-04T09:08:25.871Z,26.33
2023-03-04T09:10:55.415Z,21.10
2023-03-04T09:13:26.397Z,19.87
2023-03-04T09:15:55.028Z,21.93
2023-03-04T09:18:25.238Z,23.10
2023-03-04T09:20:54.490Z,23.67
2023-03-04T09:23:24.641Z,33.30
2023-03-04T09:25:53.194Z,31.50
2023-03-04T09:28:22.269Z,28.07
2023-03-04T09:30:50.706Z,23.30
2023-03-04T09:33:19.653Z,27.13
2023-03-04T09:35:49.881Z,27.47
2023-03-04T09:38:18.617Z,20.87
2023-03-04T09:40:50.575Z,27.23
2023-03-04T09:43:23.558Z,29.60
2023-03-04T09:45:56.786Z,27.63
2023-03-04T09:48:29.083Z,26.37
2023-03-04T09:51:15.296Z,25.23
2023-03-04T09:53:55.070Z,28.03
2023-03-04T09:56:24.871Z,31.23
2023-03-04T09:59:04.343Z,18.27
2023-03-04T10:01:37.490Z,17.83
2023-03-04T10:04:14.270Z,22.23
2023-03-04T10:06:46.932Z,25.87
2023-03-04T10:09:18.936Z,27.13
2023-03-04T10:11:52.387Z,27.80
2023-03-04T10:14:34.778Z,19.53
2023-03-04T10:17:11.257Z,24.10
2023-03-04T10:19:52.238Z,22.27
2023-03-04T10:22:28.574Z,18.30
2023-03-04T10:24:59.112Z,22.30
2023-03-04T10:27:30.217Z,25.67
2023-03-04T10:30:01.948Z,26.37
2023-03-04T10:32:30.412Z,14.57
2023-03-04T10:34:59.108Z,23.33
2023-03-04T10:37:46.274Z,25.27
2023-03-04T10:40:23.712Z,17.57
2023-03-04T10:42:54.974Z,20.93
2023-03-04T10:45:26.354Z,21.77
2023-03-04T10:47:56.144Z,15.13
2023-03-04T10:50:26.408Z,28.97
2023-03-04T10:52:56.016Z,20.07
2023-03-04T10:55:28.337Z,20.23
2023-03-04T10:58:04.605Z,17.37
2023-03-04T11:00:34.820Z,16.77
2023-03-04T11:03:24.035Z,20.67
2023-03-04T11:05:53.569Z,21.30
2023-03-04T11:08:24.410Z,22.67
2023-03-04T11:10:53.179Z,20.90
2023-03-04T11:13:24.274Z,23.03
2023-03-04T11:15:58.017Z,25.90
2023-03-04T11:18:33.464Z,20.30
2023-03-04T11:21:02.629Z,18.73
2023-03-04T11:23:36.863Z,22.57
2023-03-04T11:26:11.362Z,16.97
2023-03-04T11:28:45.719Z,21.07
2023-03-04T11:31:19.391Z,15.80
2023-03-04T11:33:52.494Z,22.40
2023-03-04T11:36:31.219Z,20.13
2023-03-04T11:39:00.376Z,22.63
2023-03-04T11:41:32.290Z,18.63
2023-03-04T11:44:03.348Z,19.00
2023-03-04T11:47:01.123Z,17.57
2023-03-04T11:50:02.314Z,18.90
2023-03-04T11:52:53.479Z,24.03
2023-03-04T11:55:38.629Z,22.30
2023-03-04T11:58:22.137Z,17.60
2023-03-04T12:00:57.065Z,25.70
2023-03-04T12:03:54.603Z,20.67
2023-03-04T12:06:34.657Z,20.93
2023-03-04T12:09:19.485Z,22.63
2023-03-04T12:11:55.896Z,15.07
2023-03-04T12:14:34.656Z,18.83
2023-03-04T12:17:20.356Z,17.60
2023-03-04T12:20:06.132Z,25.97
2023-03-04T12:22:44.548Z,18.50
2023-03-04T12:25:39.747Z,29.47
2023-03-04T12:28:27.735Z,18.37
2023-03-04T12:31:23.736Z,15.37
2023-03-04T12:34:18.346Z,39.67
2023-03-04T12:36:55.843Z,22.77
2023-03-04T12:39:33.324Z,15.70
2023-03-04T12:42:12.453Z,18.53
2023-03-04T12:44:47.911Z,26.13
2023-03-04T12:47:31.180Z,24.90
2023-03-04T12:50:24.026Z,18.70
2023-03-04T12:53:00.755Z,25.80
2023-03-04T12:55:38.241Z,24.73
2023-03-04T12:58:08.605Z,27.17
2023-03-04T13:00:48.456Z,27.87
2023-03-04T13:03:22.793Z,18.80
2023-03-04T13:06:06.797Z,24.07
2023-03-04T13:08:42.169Z,17.83
2023-03-04T13:11:47.886Z,25.50
2023-03-04T13:14:28.288Z,16.80
2023-03-04T13:16:58.936Z,17.97
2023-03-04T13:19:51.017Z,22.47
2023-03-04T13:22:34.126Z,24.83
2023-03-04T13:25:19.891Z,20.73
2023-03-04T13:27:50.240Z,16.00
2023-03-04T13:30:42.208Z,13.07
2023-03-04T13:33:53.641Z,22.90
2023-03-04T13:36:59.489Z,22.23
2023-03-04T13:39:36.589Z,22.07
2023-03-04T13:42:21.266Z,19.63
2023-03-04T13:45:00.654Z,20.53
2023-03-04T13:47:49.787Z,15.57
2023-03-04T13:50:31.729Z,22.03
2023-03-04T13:53:17.503Z,17.83
2023-03-04T13:56:16.585Z,18.07
2023-03-04T13:58:46.548Z,20.00
2023-03-04T14:01:27.020Z,26.10
2023-03-04T14:03:56.614Z,17.90
2023-03-04T14:06:27.387Z,13.93
2023-03-04T14:08:57.290Z,17.90
2023-03-04T14:11:35.189Z,19.87
2023-03-04T14:14:08.749Z,23.40
2023-03-04T14:16:40.850Z,19.93
2023-03-04T14:19:18.187Z,22.57
2023-03-04T14:21:47.878Z,21.13
2023-03-04T14:24:18.885Z,18.33
2023-03-04T14:26:49.128Z,18.03
2023-03-04T14:29:24.025Z,27.07
2023-03-04T14:31:53.168Z,16.47
2023-03-04T14:34:33.228Z,16.70
2023-03-04T14:37:03.197Z,23.90
2023-03-04T14:39:37.063Z,19.70
2023-03-04T14:42:12.978Z,22.30
2023-03-04T14:44:48.802Z,20.53
2023-03-04T14:47:21.105Z,19.50
2023-03-04T14:49:50.296Z,19.10
2023-03-04T14:52:35.432Z,26.23
2023-03-04T14:55:18.393Z,24.40
2023-03-04T14:57:51.344Z,19.93
2023-03-04T15:00:29.364Z,25.90
2023-03-04T15:03:00.197Z,25.67
2023-03-04T15:05:30.626Z,24.30
2023-03-04T15:08:01.482Z,16.83
2023-03-04T15:10:32.562Z,20.20
2023-03-04T15:13:04.356Z,24.20
2023-03-04T15:15:37.331Z,19.97
2023-03-04T15:18:16.635Z,14.97
2023-03-04T15:20:58.317Z,26.80
2023-03-04T15:23:27.154Z,24.13
2023-03-04T15:25:57.620Z,33.27
2023-03-04T15:28:31.496Z,19.80
2023-03-04T15:31:00.247Z,23.53
2023-03-04T15:33:28.778Z,34.00
2023-03-04T15:36:00.030Z,17.03
2023-03-04T15:38:29.310Z,21.40
2023-03-04T15:40:59.645Z,27.63
2023-03-04T15:43:29.600Z,17.83
2023-03-04T15:45:58.322Z,26.90
2023-03-04T15:48:26.918Z,30.67
2023-03-04T15:50:58.403Z,18.17
2023-03-04T15:53:33.427Z,26.23
2023-03-04T15:56:03.147Z,23.53
2023-03-04T15:58:35.176Z,27.43
2023-03-04T16:01:04.340Z,29.47
2023-03-04T16:03:33.119Z,33.53
2023-03-04T16:06:01.916Z,23.10
2023-03-04T16:08:30.427Z,20.50
2023-03-04T16:10:59.159Z,23.33
2023-03-04T16:13:27.551Z,23.07
2023-03-04T16:15:57.765Z,20.83
2023-03-04T16:18:26.375Z,22.13
2023-03-04T16:20:55.148Z,20.90
2023-03-04T16:23:25.634Z,27.53
2023-03-04T16:25:57.293Z,28.40
2023-03-04T16:28:25.723Z,23.77
2023-03-04T16:30:54.563Z,24.63
2023-03-04T16:33:24.462Z,19.93
2023-03-04T16:35:53.428Z,23.47
2023-03-04T16:38:27.073Z,27.97
2023-03-04T16:40:56.433Z,24.50
2023-03-04T16:43:25.534Z,31.93
2023-03-04T16:45:54.314Z,29.00
2023-03-04T16:48:24.116Z,27.93
2023-03-04T16:50:52.913Z,24.00
2023-03-04T16:53:29.943Z,33.03
2023-03-04T16:55:59.792Z,24.33
2023-03-04T16:58:28.543Z,22.63
2023-03-04T17:00:57.681Z,27.73
2023-03-04T17:03:27.568Z,26.77
2023-03-04T17:05:56.464Z,25.43
2023-03-04T17:08:24.894Z,22.73
2023-03-04T17:10:53.961Z,38.13
2023-03-04T17:13:22.375Z,33.70
2023-03-04T17:15:51.117Z,42.53
2023-03-04T17:18:19.581Z,38.27
2023-03-04T17:20:49.765Z,17.80
2023-03-04T17:23:18.266Z,25.10
2023-03-04T17:25:47.086Z,22.57
2023-03-04T17:28:15.510Z,26.97
2023-03-04T17:30:44.207Z,25.57
2023-03-04T17:33:12.654Z,25.23
2023-03-04T17:35:41.471Z,19.00
2023-03-04T17:38:11.745Z,26.13
2023-03-04T17:40:40.647Z,28.23
2023-03-04T17:43:12.191Z,27.77
2023-03-04T17:45:41.610Z,28.03
2023-03-04T17:48:14.859Z,28.17
2023-03-04T17:50:49.933Z,28.87
2023-03-04T17:53:20.674Z,31.27
2023-03-04T17:55:53.422Z,25.93
2023-03-04T17:58:22.294Z,19.87
2023-03-04T18:00:53.700Z,32.57
2023-03-04T18:03:22.244Z,27.20
2023-03-04T18:05:51.328Z,24.23
2023-03-04T18:08:24.022Z,34.63
2023-03-04T18:10:52.939Z,20.40
2023-03-04T18:13:21.626Z,21.60
2023-03-04T18:15:50.364Z,31.27
2023-03-04T18:18:18.884Z,23.33
2023-03-04T18:20:48.137Z,24.63
2023-03-04T18:23:16.607Z,28.40
2023-03-04T18:25:46.677Z,26.57
2023-03-04T18:28:15.139Z,24.97
2023-03-04T18:30:43.902Z,27.60
2023-03-04T18:33:12.556Z,22.33
2023-03-04T18:35:41.332Z,30.17
2023-03-04T18:38:09.928Z,34.50
2023-03-04T18:40:40.617Z,20.30
2023-03-04T18:43:10.508Z,24.80
2023-03-04T18:45:39.281Z,25.00
2023-03-04T18:48:07.918Z,23.23
2023-03-04T18:50:36.590Z,25.97
2023-03-04T18:53:05.680Z,26.13
2023-03-04T18:55:34.450Z,25.83
2023-03-04T18:58:04.355Z,24.03
2023-03-04T19:00:34.887Z,29.03
2023-03-04T19:03:08.398Z,24.37
2023-03-04T19:05:37.681Z,24.40
2023-03-04T19:08:06.849Z,28.87
2023-03-04T19:10:35.554Z,22.23
2023-03-04T19:13:04.003Z,21.67
2023-03-04T19:15:34.523Z,26.47
2023-03-04T19:18:03.018Z,18.90
2023-03-04T19:20:32.103Z,24.30
2023-03-04T19:23:00.705Z,29.97
2023-03-04T19:25:29.423Z,22.37
2023-03-04T19:27:58.100Z,22.20
2023-03-04T19:30:26.896Z,23.80
2023-03-04T19:32:56.721Z,22.37
2023-03-04T19:35:25.515Z,21.70
2023-03-04T19:37:54.063Z,24.93
2023-03-04T19:40:24.675Z,27.20
2023-03-04T19:42:53.200Z,25.83
2023-03-04T19:45:22.111Z,24.87
2023-03-04T19:47:50.727Z,20.07
2023-03-04T19:50:21.076Z,21.23
2023-03-04T19:52:49.520Z,23.33
2023-03-04T19:55:18.556Z,16.20
2023-03-04T19:57:47.160Z,16.50
2023-03-04T20:00:16.485Z,26.67
2023-03-04T20:02:46.537Z,18.17
2023-03-04T20:05:15.304Z,19.43
2023-03-04T20:07:45.161Z,20.53
2023-03-04T20:10:15.500Z,22.80
2023-03-04T20:12:44.021Z,25.20
2023-03-04T20:15:13.250Z,27.27
2023-03-04T20:17:41.707Z,23.70
2023-03-04T20:20:12.534Z,23.20
2023-03-04T20:22:41.139Z,22.87
2023-03-04T20:25:11.672Z,26.40
2023-03-04T20:27:40.278Z,32.73
2023-03-04T20:30:10.759Z,31.90
2023-03-04T20:32:39.294Z,32.20
2023-03-04T20:35:13.945Z,47.03
2023-03-04T20:37:43.353Z,35.20
2023-03-04T20:40:14.560Z,33.07
2023-03-04T20:42:43.226Z,35.53
2023-03-04T20:45:12.924Z,33.90
2023-03-04T20:47:41.820Z,27.23
2023-03-04T20:50:12.479Z,38.50
2023-03-04T20:52:41.784Z,26.13
2023-03-04T20:55:14.903Z,31.90
2023-03-04T20:57:43.452Z,30.80
2023-03-04T21:00:13.562Z,36.93
2023-03-04T21:02:42.247Z,29.77
2023-03-04T21:05:11.396Z,37.90
2023-03-04T21:07:39.959Z,36.97
2023-03-04T21:10:09.701Z,37.53
2023-03-04T21:12:39.717Z,40.17
2023-03-04T21:15:09.779Z,40.60
2023-03-04T21:17:38.414Z,33.67
2023-03-04T21:20:08.537Z,34.53
2023-03-04T21:22:37.190Z,27.77
2023-03-04T21:25:07.278Z,30.27
2023-03-04T21:27:38.770Z,28.37
2023-03-04T21:30:10.830Z,31.53
2023-03-04T21:32:40.181Z,26.53
2023-03-04T21:35:13.354Z,29.03
2023-03-04T21:37:42.416Z,38.70
2023-03-04T21:40:12.549Z,37.43
2023-03-04T21:42:41.115Z,36.17
2023-03-04T21:45:12.680Z,37.70
2023-03-04T21:47:41.583Z,39.87
2023-03-04T21:50:11.654Z,37.20
2023-03-04T21:52:40.214Z,37.63
2023-03-04T21:55:09.620Z,34.43
2023-03-04T21:57:38.231Z,35.33
2023-03-04T22:00:08.280Z,42.67
2023-03-04T22:02:44.014Z,34.17
2023-03-04T22:05:12.782Z,43.97
2023-03-04T22:07:41.264Z,42.50
2023-03-04T22:10:11.129Z,39.03
2023-03-04T22:12:39.644Z,40.07
2023-03-04T22:15:09.153Z,39.07
2023-03-04T22:17:37.663Z,37.57
2023-03-04T22:20:09.110Z,33.37
2023-03-04T22:22:37.643Z,41.50
2023-03-04T22:25:07.104Z,36.13
2023-03-04T22:27:35.518Z,33.00
2023-03-04T22:30:04.703Z,42.43
2023-03-04T22:32:33.262Z,32.47
2023-03-04T22:35:18.768Z,37.37
2023-03-04T22:37:47.553Z,32.53
2023-03-04T22:40:16.397Z,30.90
2023-03-04T22:42:45.932Z,40.50
2023-03-04T22:45:16.612Z,34.17
2023-03-04T22:47:49.423Z,34.40
2023-03-04T22:50:20.516Z,32.93
2023-03-04T22:52:49.956Z,29.93
2023-03-04T22:55:20.826Z,31.87
2023-03-04T22:57:49.919Z,33.53
2023-03-04T23:00:22.289Z,33.33
2023-03-04T23:02:51.606Z,26.63
2023-03-04T23:05:21.603Z,33.47
2023-03-04T23:07:51.485Z,25.53
2023-03-04T23:10:23.550Z,28.23
2023-03-04T23:12:53.289Z,32.80
2023-03-04T23:15:22.226Z,24.63
2023-03-04T23:17:51.346Z,30.43
2023-03-04T23:20:22.671Z,25.20
2023-03-04T23:22:51.569Z,32.20
2023-03-04T23:25:20.158Z,26.57
2023-03-04T23:27:48.861Z,25.60
2023-03-04T23:30:17.723Z,29.10
2023-03-04T23:32:46.533Z,26.20
2023-03-04T23:35:14.947Z,24.80
2023-03-04T23:37:45.009Z,32.37
2023-03-04T23:40:14.230Z,29.60
2023-03-04T23:42:42.989Z,22.07
2023-03-04T23:45:12.221Z,23.23
2023-03-04T23:47:40.928Z,25.07
2023-03-04T23:50:11.020Z,30.70
2023-03-04T23:52:39.691Z,25.20
2023-03-04T23:55:14.229Z,27.67
2023-03-04T23:57:42.984Z,28.93
